Time;durP1;ratioP1;P1;durP2;ratioP2;P2;SDS_P1;SDS_P2;PMS_P1;PMS_P2;Temp;Humidity;BMP_temperature;BMP_pressure;BME280_temperature;BME280_humidity;BME280_pressure;Samples;Min_cycle;Max_cycle;Signal;HPM_P1;HPM_P2
2023/05/16 00:01:38;;;;;;;;;;;;;;;12.99;64.15;101772.41;5075558;28;19923;-69
2023/05/16 00:04:04;;;;;;;;;;;;;;;12.97;64.46;101781.59;5096187;28;19916;-69
2023/05/16 00:06:30;;;;;;;;;;;;;;;12.97;64.22;101765.53;5096842;28;19919;-69
2023/05/16 00:08:56;;;;;;;;;;;;;;;12.97;64.42;101769.06;5096723;28;20043;-68
2023/05/16 00:11:22;;;;;;;;;;;;;;;12.94;65.12;101771.19;5061675;28;19959;-69
2023/05/16 00:13:47;;;;;;;;;;;;;;;12.94;65.01;101760.50;5096399;28;19965;-68
2023/05/16 00:16:13;;;;;;;;;;;;;;;12.92;64.97;101755.31;5096503;28;20365;-68
2023/05/16 00:18:39;;;;;;;;;;;;;;;12.90;64.72;101756.47;5096847;28;19912;-70
2023/05/16 00:21:04;;;;;;;;;;;;;;;12.90;64.56;101746.59;5096457;28;19975;-69
2023/05/16 00:23:30;;;;;;;;;;;;;;;12.91;64.51;101750.13;5096424;28;19912;-68
2023/05/16 00:25:55;;;;;;;;;;;;;;;12.89;64.56;101744.09;5077934;28;20279;-67
2023/05/16 00:28:21;;;;;;;;;;;;;;;12.91;64.43;101747.44;5096045;28;19912;-69
2023/05/16 00:30:46;;;;;;;;;;;;;;;12.89;63.84;101738.75;5095825;28;19920;-68
2023/05/16 00:33:11;;;;;;;;;;;;;;;12.85;64.34;101743.56;5095618;28;19967;-70
2023/05/16 00:35:37;;;;;;;;;;;;;;;12.85;64.03;101737.38;5095514;28;19958;-68
2023/05/16 00:38:02;;;;;;;;;;;;;;;12.82;64.05;101740.34;5095997;28;19912;-69
2023/05/16 00:40:28;;;;;;;;;;;;;;;12.75;63.95;101732.13;5095305;28;20015;-69
2023/05/16 00:42:53;;;;;;;;;;;;;;;12.75;63.96;101739.31;5095213;28;19916;-69
2023/05/16 00:45:19;;;;;;;;;;;;;;;12.71;64.23;101736.91;5095355;28;19911;-70
2023/05/16 00:47:44;;;;;;;;;;;;;;;12.67;64.62;101732.03;5095020;28;19922;-69
2023/05/16 00:50:10;;;;;;;;;;;;;;;12.64;65.44;101735.84;5095064;28;20399;-70
2023/05/16 00:52:35;;;;;;;;;;;;;;;12.63;65.49;101739.50;5095247;28;20244;-69
2023/05/16 00:55:01;;;;;;;;;;;;;;;12.62;65.15;101731.66;5076900;28;19913;-69
2023/05/16 00:57:27;;;;;;;;;;;;;;;12.58;64.67;101730.28;5095105;28;20263;-69
2023/05/16 00:59:53;;;;;;;;;;;;;;;12.55;64.61;101731.41;5094775;28;19912;-69
2023/05/16 01:02:20;;;;;;;;;;;;;;;12.51;65.20;101727.38;5076647;28;19999;-69
2023/05/16 01:04:47;;;;;;;;;;;;;;;12.46;65.13;101727.00;5094698;28;19920;-69
2023/05/16 01:07:12;;;;;;;;;;;;;;;12.43;65.71;101721.94;5076505;28;19912;-69
2023/05/16 01:09:38;;;;;;;;;;;;;;;12.40;65.46;101723.06;5076734;28;20288;-70
2023/05/16 01:12:10;;;;;;;;;;;;;;;12.38;66.18;101726.88;5075906;28;19923;-70
2023/05/16 01:14:45;;;;;;;;;;;;;;;12.42;66.02;101730.94;5058836;28;20382;-69
2023/05/16 01:17:30;;;;;;;;;;;;;;;12.47;65.27;101725.16;5076885;28;20015;-69
2023/05/16 01:19:59;;;;;;;;;;;;;;;12.47;64.76;101727.84;5093963;28;19919;-68
2023/05/16 01:22:31;;;;;;;;;;;;;;;12.42;64.89;101725.59;5094522;28;19923;-69
2023/05/16 01:25:15;;;;;;;;;;;;;;;12.36;66.02;101726.19;5094598;28;19919;-69
2023/05/16 01:27:42;;;;;;;;;;;;;;;12.35;65.42;101737.88;5094950;28;19912;-69
2023/05/16 01:30:15;;;;;;;;;;;;;;;12.33;65.88;101731.84;5094294;28;20015;-70
2023/05/16 01:32:40;;;;;;;;;;;;;;;12.32;65.21;101730.16;5094355;28;19935;-69
2023/05/16 01:35:07;;;;;;;;;;;;;;;12.28;66.62;101731.47;5094472;28;20284;-70
2023/05/16 01:37:38;;;;;;;;;;;;;;;12.29;65.68;101723.28;5093937;28;20016;-69
2023/05/16 01:40:08;;;;;;;;;;;;;;;12.28;66.47;101723.44;5094249;28;19916;-69
2023/05/16 01:42:36;;;;;;;;;;;;;;;12.28;66.00;101710.94;5094103;28;19923;-69
2023/05/16 01:45:06;;;;;;;;;;;;;;;12.31;66.36;101717.81;5093980;28;20431;-71
2023/05/16 01:47:35;;;;;;;;;;;;;;;12.30;66.34;101716.13;5093960;28;19923;-68
2023/05/16 01:50:08;;;;;;;;;;;;;;;12.30;66.26;101711.63;5093782;28;19923;-69
2023/05/16 01:52:39;;;;;;;;;;;;;;;12.31;66.32;101715.13;5094105;28;19950;-69
2023/05/16 01:55:09;;;;;;;;;;;;;;;12.30;66.43;101705.44;5093857;28;20434;-68
2023/05/16 01:57:35;;;;;;;;;;;;;;;12.31;66.05;101707.13;5094010;28;19923;-68
2023/05/16 02:00:00;;;;;;;;;;;;;;;12.31;65.75;101702.63;5093786;28;19912;-69
2023/05/16 02:02:25;;;;;;;;;;;;;;;12.32;66.04;101698.13;5093443;28;19916;-69
2023/05/16 02:04:51;;;;;;;;;;;;;;;12.33;66.11;101699.78;5093792;28;20018;-69
2023/05/16 02:07:16;;;;;;;;;;;;;;;12.33;65.73;101697.97;5093792;28;19912;-69
2023/05/16 02:09:42;;;;;;;;;;;;;;;12.35;65.51;101695.13;5093633;28;19912;-70
2023/05/16 02:12:07;;;;;;;;;;;;;;;12.34;65.88;101688.94;5093259;28;19912;-68
2023/05/16 02:14:32;;;;;;;;;;;;;;;12.37;65.85;101687.81;5093249;28;19912;-69
2023/05/16 02:16:58;;;;;;;;;;;;;;;12.41;64.89;101694.53;5093240;28;19941;-69
2023/05/16 02:19:23;;;;;;;;;;;;;;;12.44;65.41;101701.44;5093336;28;20060;-69
2023/05/16 02:21:49;;;;;;;;;;;;;;;12.48;64.91;101706.31;5093350;28;20394;-69
2023/05/16 02:24:14;;;;;;;;;;;;;;;12.53;65.01;101701.34;5093651;28;19912;-69
2023/05/16 02:26:40;;;;;;;;;;;;;;;12.58;65.05;101693.69;5093940;28;19918;-69
2023/05/16 02:29:05;;;;;;;;;;;;;;;12.65;64.62;101693.91;5093607;28;19912;-69
2023/05/16 02:31:31;;;;;;;;;;;;;;;12.69;64.35;101695.28;5093043;28;19920;-69
2023/05/16 02:33:57;;;;;;;;;;;;;;;12.75;64.23;101696.53;5093109;28;19912;-69
2023/05/16 02:36:23;;;;;;;;;;;;;;;12.81;63.94;101704.78;5093164;28;19919;-69
2023/05/16 02:38:48;;;;;;;;;;;;;;;12.89;63.75;101702.16;5093269;28;19957;-70
2023/05/16 02:41:13;;;;;;;;;;;;;;;13.00;63.24;101696.56;5093022;28;20077;-70
2023/05/16 02:43:39;;;;;;;;;;;;;;;13.08;63.29;101693.13;5092916;28;19912;-68
2023/05/16 02:46:04;;;;;;;;;;;;;;;13.18;62.67;101685.84;5093090;28;19912;-73
2023/05/16 02:48:30;;;;;;;;;;;;;;;13.31;62.42;101685.47;5092885;28;20379;-68
2023/05/16 02:50:56;;;;;;;;;;;;;;;13.40;61.53;101680.97;5092963;28;19916;-69
2023/05/16 02:53:21;;;;;;;;;;;;;;;13.49;60.98;101677.34;5092912;28;19916;-69
2023/05/16 02:55:46;;;;;;;;;;;;;;;13.58;60.07;101679.06;5092901;28;19912;-69
2023/05/16 02:58:12;;;;;;;;;;;;;;;13.77;60.19;101675.31;5092702;28;19919;-68
2023/05/16 03:00:37;;;;;;;;;;;;;;;13.98;59.97;101674.88;5092656;28;19919;-68
2023/05/16 03:03:03;;;;;;;;;;;;;;;14.40;59.12;101672.97;5092464;28;19923;-70
2023/05/16 03:05:28;;;;;;;;;;;;;;;15.15;57.43;101673.66;5092983;28;19938;-68
2023/05/16 03:07:53;;;;;;;;;;;;;;;16.25;52.62;101673.78;5093157;28;19916;-69
2023/05/16 03:10:19;;;;;;;;;;;;;;;17.39;48.68;101670.16;5093307;28;19919;-68
2023/05/16 03:12:45;;;;;;;;;;;;;;;18.42;45.75;101667.28;5092689;28;20008;-69
2023/05/16 03:15:10;;;;;;;;;;;;;;;19.06;44.30;101670.78;5092354;28;20006;-69
2023/05/16 03:17:35;;;;;;;;;;;;;;;19.02;43.30;101665.97;5092153;28;19919;-68
2023/05/16 03:20:02;;;;;;;;;;;;;;;18.99;43.58;101677.19;5092615;28;19912;-69
2023/05/16 03:22:28;;;;;;;;;;;;;;;19.34;43.67;101668.06;5092507;28;19973;-69
2023/05/16 03:24:54;;;;;;;;;;;;;;;19.42;44.13;101664.41;5092283;28;19923;-70
2023/05/16 03:27:19;;;;;;;;;;;;;;;19.25;43.77;101669.28;5092344;28;19919;-70
2023/05/16 03:29:45;;;;;;;;;;;;;;;19.00;43.16;101670.75;5092052;28;20006;-68
2023/05/16 03:32:10;;;;;;;;;;;;;;;18.19;44.35;101665.59;5092000;28;19924;-70
2023/05/16 03:34:35;;;;;;;;;;;;;;;17.43;46.35;101661.50;5092649;28;19919;-72
2023/05/16 03:37:01;;;;;;;;;;;;;;;17.06;47.57;101654.34;5094338;28;19959;-67
2023/05/16 03:39:26;;;;;;;;;;;;;;;16.79;48.59;101657.63;5096324;28;19912;-69
2023/05/16 03:41:54;;;;;;;;;;;;;;;16.49;49.57;101662.88;5096395;28;19919;-69
2023/05/16 03:44:20;;;;;;;;;;;;;;;16.17;50.30;101653.16;5078035;28;19926;-70
2023/05/16 03:46:45;;;;;;;;;;;;;;;15.78;52.07;101658.56;5096331;28;20018;-70
2023/05/16 03:49:11;;;;;;;;;;;;;;;15.49;52.57;101651.09;5096499;28;19916;-69
2023/05/16 03:51:36;;;;;;;;;;;;;;;15.24;53.93;101650.31;5096314;28;19916;-71
2023/05/16 03:54:01;;;;;;;;;;;;;;;15.06;54.16;101642.50;5096560;28;19912;-69
2023/05/16 03:56:27;;;;;;;;;;;;;;;14.94;54.85;101646.53;5096119;28;19912;-69
2023/05/16 03:58:52;;;;;;;;;;;;;;;14.90;54.79;101634.47;5095957;28;20426;-69
2023/05/16 04:01:17;;;;;;;;;;;;;;;14.96;54.74;101644.50;5095691;28;20291;-72
2023/05/16 04:03:43;;;;;;;;;;;;;;;15.04;54.89;101647.19;5095764;28;20094;-70
2023/05/16 04:06:08;;;;;;;;;;;;;;;15.49;54.15;101643.03;5095899;28;19912;-69
2023/05/16 04:08:34;;;;;;;;;;;;;;;16.64;50.94;101646.78;5096029;28;20008;-71
2023/05/16 04:10:59;;;;;;;;;;;;;;;17.86;48.25;101640.13;5074076;28;19912;-72
2023/05/16 04:13:25;;;;;;;;;;;;;;;19.53;44.24;101633.28;5052589;28;19916;-72
2023/05/16 04:19:11;;;;;;;;;;;;;;;20.85;40.64;101642.59;5095422;28;19969;-71
2023/05/16 04:21:37;;;;;;;;;;;;;;;21.40;38.68;101636.94;5095388;28;19912;-70
2023/05/16 04:24:02;;;;;;;;;;;;;;;21.56;38.20;101644.56;5094261;28;19984;-71
2023/05/16 04:26:29;;;;;;;;;;;;;;;21.36;39.69;101635.66;5095375;28;19912;-74
2023/05/16 04:28:54;;;;;;;;;;;;;;;21.22;38.66;101640.25;5095559;28;19966;-71
2023/05/16 04:31:21;;;;;;;;;;;;;;;21.05;39.72;101634.44;5095936;28;20374;-69
2023/05/16 04:33:47;;;;;;;;;;;;;;;21.39;38.42;101635.22;5096011;28;19912;-71
2023/05/16 04:36:12;;;;;;;;;;;;;;;21.94;37.48;101623.75;5096558;28;19919;-69
2023/05/16 04:38:38;;;;;;;;;;;;;;;22.34;36.48;101620.84;5095673;28;19951;-69
2023/05/16 04:41:03;;;;;;;;;;;;;;;22.18;36.69;101624.06;5095362;28;20283;-70
2023/05/16 04:43:29;;;;;;;;;;;;;;;21.89;37.56;101629.00;5096075;28;20336;-70
2023/05/16 04:45:54;;;;;;;;;;;;;;;21.71;37.18;101626.19;5095421;28;19916;-69
2023/05/16 04:48:20;;;;;;;;;;;;;;;21.30;38.14;101627.34;5094770;28;19978;-69
2023/05/16 04:50:45;;;;;;;;;;;;;;;20.88;38.56;101634.06;5089786;28;19923;-71
2023/05/16 04:53:11;;;;;;;;;;;;;;;20.72;39.40;101626.34;5094851;28;20303;-71
2023/05/16 04:55:36;;;;;;;;;;;;;;;20.55;39.52;101633.22;5095265;28;19911;-70
2023/05/16 04:58:02;;;;;;;;;;;;;;;20.33;39.86;101619.00;5094700;28;19923;-70
2023/05/16 05:00:27;;;;;;;;;;;;;;;20.25;40.81;101624.63;5095436;28;19919;-70
2023/05/16 05:02:53;;;;;;;;;;;;;;;20.04;40.47;101618.34;5096119;28;19927;-70
2023/05/16 05:05:18;;;;;;;;;;;;;;;19.93;41.19;101623.47;5095394;28;19916;-72
2023/05/16 05:07:44;;;;;;;;;;;;;;;19.89;41.15;101624.94;5094226;28;19916;-69
2023/05/16 05:10:10;;;;;;;;;;;;;;;19.71;41.44;101618.22;5096219;28;19919;-70
2023/05/16 05:12:35;;;;;;;;;;;;;;;19.15;42.46;101623.72;5096687;28;20359;-70
2023/05/16 05:15:01;;;;;;;;;;;;;;;18.75;43.66;101621.75;5095347;28;19919;-70
2023/05/16 05:17:27;;;;;;;;;;;;;;;18.45;44.58;101616.47;5096467;28;19919;-72
2023/05/16 05:19:52;;;;;;;;;;;;;;;18.36;45.20;101620.34;5097829;28;19912;-71
2023/05/16 05:22:17;;;;;;;;;;;;;;;18.37;45.29;101611.22;5097033;28;20045;-70
2023/05/16 05:24:42;;;;;;;;;;;;;;;18.45;46.01;101618.34;5095043;28;20368;-72
2023/05/16 05:27:08;;;;;;;;;;;;;;;18.39;45.17;101616.44;5094783;28;20022;-69
2023/05/16 05:29:34;;;;;;;;;;;;;;;18.31;45.67;101606.63;5094871;28;19916;-69
2023/05/16 05:31:59;;;;;;;;;;;;;;;18.30;45.50;101604.13;5094663;28;19912;-72
2023/05/16 05:34:24;;;;;;;;;;;;;;;18.24;45.63;101606.56;5095423;28;19916;-74
2023/05/16 05:36:50;;;;;;;;;;;;;;;18.22;45.94;101605.09;5094151;28;19912;-73
2023/05/16 05:39:15;;;;;;;;;;;;;;;18.21;45.95;101601.56;5094759;28;20000;-71
2023/05/16 05:41:41;;;;;;;;;;;;;;;18.26;45.97;101601.81;5091825;28;19912;-73
2023/05/16 05:44:06;;;;;;;;;;;;;;;18.34;45.89;101600.84;5094840;28;20347;-74
2023/05/16 05:46:32;;;;;;;;;;;;;;;18.34;45.76;101595.44;5093916;28;19912;-70
2023/05/16 05:48:58;;;;;;;;;;;;;;;18.17;46.45;101583.22;5093057;28;19930;-69
2023/05/16 05:51:24;;;;;;;;;;;;;;;18.13;46.73;101598.13;5092758;28;19915;-70
2023/05/16 05:53:53;;;;;;;;;;;;;;;18.24;46.35;101592.25;5092737;28;19959;-70
2023/05/16 05:56:20;;;;;;;;;;;;;;;18.27;46.33;101584.59;5092985;28;19966;-71
2023/05/16 05:58:45;;;;;;;;;;;;;;;18.29;45.89;101591.66;5092394;28;20364;-70
2023/05/16 06:01:11;;;;;;;;;;;;;;;18.36;45.91;101581.75;5091462;28;19943;-71
2023/05/16 06:03:36;;;;;;;;;;;;;;;18.54;46.42;101585.66;5074378;28;19912;-69
2023/05/16 06:06:02;;;;;;;;;;;;;;;18.66;46.01;101583.28;5092445;28;19973;-71
2023/05/16 06:08:28;;;;;;;;;;;;;;;18.66;45.18;101586.00;5092765;28;19912;-72
2023/05/16 06:10:53;;;;;;;;;;;;;;;18.66;45.39;101593.25;5074552;28;19916;-70
2023/05/16 06:13:18;;;;;;;;;;;;;;;18.64;44.49;101574.56;5092708;28;19912;-69
2023/05/16 06:15:48;;;;;;;;;;;;;;;18.66;45.18;101577.91;5092614;28;20016;-71
2023/05/16 06:18:13;;;;;;;;;;;;;;;18.84;45.46;101575.56;5092525;28;19920;-69
2023/05/16 06:20:39;;;;;;;;;;;;;;;19.01;44.81;101575.22;5092384;28;19912;-69
2023/05/16 06:23:04;;;;;;;;;;;;;;;19.17;43.61;101572.22;5092639;28;20237;-71
2023/05/16 06:25:29;;;;;;;;;;;;;;;19.29;43.79;101562.50;5092546;28;20263;-71
2023/05/16 06:27:55;;;;;;;;;;;;;;;19.45;44.05;101575.69;5092649;28;20263;-70
2023/05/16 06:30:20;;;;;;;;;;;;;;;19.56;42.98;101573.47;5074121;28;20387;-71
2023/05/16 06:32:46;;;;;;;;;;;;;;;19.48;42.93;101571.75;5092245;28;19916;-72
2023/05/16 06:35:11;;;;;;;;;;;;;;;19.49;43.60;101571.53;5092370;28;20338;-70
2023/05/16 06:37:36;;;;;;;;;;;;;;;19.49;43.92;101568.84;5092131;28;20237;-69
2023/05/16 06:40:02;;;;;;;;;;;;;;;19.41;43.72;101560.09;5092291;28;19912;-69
2023/05/16 06:42:27;;;;;;;;;;;;;;;19.34;43.47;101568.13;5092580;28;20018;-69
2023/05/16 06:44:53;;;;;;;;;;;;;;;19.32;43.47;101563.97;5092430;28;19999;-70
2023/05/16 06:47:18;;;;;;;;;;;;;;;19.37;43.50;101554.25;5018908;28;2063648;-69
2023/05/16 06:49:43;;;;;;;;;;;;;;;19.43;43.37;101552.63;5092807;28;19920;-69
2023/05/16 06:52:09;;;;;;;;;;;;;;;19.46;43.16;101553.03;5092429;28;19916;-70
2023/05/16 06:54:34;;;;;;;;;;;;;;;19.57;42.46;101553.50;5091605;28;19916;-69
2023/05/16 06:57:00;;;;;;;;;;;;;;;19.60;42.20;101540.44;5093049;28;19919;-70
2023/05/16 06:59:25;;;;;;;;;;;;;;;19.68;41.67;101542.13;5092731;28;20363;-71
2023/05/16 07:01:50;;;;;;;;;;;;;;;19.71;40.09;101545.25;5092479;28;19912;-68
2023/05/16 07:04:16;;;;;;;;;;;;;;;19.79;40.60;101541.53;5092526;28;19958;-69
2023/05/16 07:06:41;;;;;;;;;;;;;;;19.89;41.02;101541.97;5092237;28;19916;-71
2023/05/16 07:09:07;;;;;;;;;;;;;;;19.90;40.22;101537.38;5092478;28;20501;-70
2023/05/16 07:11:35;;;;;;;;;;;;;;;19.92;39.72;101538.84;5091255;28;20012;-70
2023/05/16 07:14:00;;;;;;;;;;;;;;;20.02;40.00;101531.19;5091400;28;20003;-70
2023/05/16 07:16:27;;;;;;;;;;;;;;;20.14;40.09;101534.09;5092578;28;19919;-70
2023/05/16 07:18:55;;;;;;;;;;;;;;;20.26;38.80;101526.22;5091024;28;19912;-70
2023/05/16 07:21:21;;;;;;;;;;;;;;;20.34;38.18;101528.72;5092234;28;19934;-69
2023/05/16 07:23:46;;;;;;;;;;;;;;;20.38;37.30;101519.97;5092559;28;19965;-69
2023/05/16 07:26:11;;;;;;;;;;;;;;;20.39;36.57;101527.03;5092331;28;19958;-70
2023/05/16 07:28:36;;;;;;;;;;;;;;;20.44;37.38;101512.06;5092553;28;19935;-70
2023/05/16 07:31:02;;;;;;;;;;;;;;;20.47;37.10;101523.31;5092475;28;19912;-70
2023/05/16 07:33:27;;;;;;;;;;;;;;;20.50;35.97;101520.19;5072025;28;19935;-69
2023/05/16 07:35:53;;;;;;;;;;;;;;;20.53;36.42;101522.50;5092303;28;20018;-70
2023/05/16 07:38:20;;;;;;;;;;;;;;;20.53;35.39;101514.38;5092488;28;19912;-70
2023/05/16 07:40:45;;;;;;;;;;;;;;;20.62;35.94;101513.09;5092315;28;20440;-69
2023/05/16 07:43:10;;;;;;;;;;;;;;;20.75;36.11;101514.94;5092591;28;19912;-71
2023/05/16 07:45:36;;;;;;;;;;;;;;;20.90;35.35;101510.13;5092116;28;20037;-70
2023/05/16 07:48:02;;;;;;;;;;;;;;;20.97;35.19;101499.28;5092435;28;19962;-70
2023/05/16 07:50:28;;;;;;;;;;;;;;;21.00;34.87;101501.56;5092066;28;20271;-70
2023/05/16 07:52:53;;;;;;;;;;;;;;;20.93;34.71;101493.47;5092213;28;19912;-70
2023/05/16 07:55:20;;;;;;;;;;;;;;;21.01;34.93;101497.81;5092536;28;19912;-72
2023/05/16 07:57:47;;;;;;;;;;;;;;;21.05;34.54;101499.03;5092343;28;19912;-68
2023/05/16 08:00:12;;;;;;;;;;;;;;;21.15;34.42;101494.00;5092220;28;19912;-70
2023/05/16 08:02:38;;;;;;;;;;;;;;;21.13;34.54;101490.69;5090614;28;19912;-70
2023/05/16 08:05:04;;;;;;;;;;;;;;;21.26;35.35;101495.25;5092015;28;20265;-69
2023/05/16 08:07:55;;;;;;;;;;;;;;;21.27;33.56;101491.47;5092694;28;19977;-69
2023/05/16 08:10:22;;;;;;;;;;;;;;;21.29;33.41;101502.94;5092121;28;20309;-67
2023/05/16 08:12:53;;;;;;;;;;;;;;;21.27;34.04;101486.06;5091963;28;19947;-70
2023/05/16 08:15:18;;;;;;;;;;;;;;;21.37;34.45;101497.25;5091873;28;19939;-69
2023/05/16 08:17:44;;;;;;;;;;;;;;;21.40;33.81;101506.88;5091853;28;20351;-69
2023/05/16 08:20:10;;;;;;;;;;;;;;;21.39;34.24;101494.34;5090687;28;19922;-69
2023/05/16 08:22:35;;;;;;;;;;;;;;;21.44;34.81;101491.84;5093241;28;19912;-69
2023/05/16 08:25:00;;;;;;;;;;;;;;;21.49;34.19;101490.13;5095869;28;19919;-68
2023/05/16 08:27:26;;;;;;;;;;;;;;;21.61;34.91;101498.38;5095340;28;19912;-70
2023/05/16 08:29:52;;;;;;;;;;;;;;;21.72;34.26;101488.75;5095819;28;19967;-69
2023/05/16 08:32:17;;;;;;;;;;;;;;;21.82;34.15;101487.22;5090101;28;19958;-73
2023/05/16 08:34:43;;;;;;;;;;;;;;;21.90;34.88;101486.94;5095352;28;20291;-70
2023/05/16 08:37:09;;;;;;;;;;;;;;;22.06;34.04;101488.31;5095414;28;20279;-71
2023/05/16 08:39:34;;;;;;;;;;;;;;;22.10;33.42;101480.56;5095339;28;19916;-71
2023/05/16 08:41:59;;;;;;;;;;;;;;;22.02;34.24;101476.22;5095396;28;19912;-70
2023/05/16 08:44:25;;;;;;;;;;;;;;;22.13;34.50;101485.56;5095002;28;19912;-71
2023/05/16 08:46:55;;;;;;;;;;;;;;;22.24;33.91;101476.69;5095103;28;19919;-71
2023/05/16 08:49:20;;;;;;;;;;;;;;;22.37;33.85;101475.75;5095381;28;19916;-71
2023/05/16 08:51:46;;;;;;;;;;;;;;;22.45;34.08;101476.28;5095385;28;19935;-71
2023/05/16 08:54:12;;;;;;;;;;;;;;;22.60;33.48;101469.69;5094994;28;19912;-73
2023/05/16 08:56:40;;;;;;;;;;;;;;;22.67;33.32;101481.28;5095254;28;19912;-72
2023/05/16 08:59:06;;;;;;;;;;;;;;;22.66;33.27;101468.78;5094935;28;19954;-72
2023/05/16 09:01:31;;;;;;;;;;;;;;;22.64;33.56;101473.59;5095165;28;19951;-73
2023/05/16 09:03:57;;;;;;;;;;;;;;;22.64;34.19;101473.59;5076818;28;19912;-70
2023/05/16 09:06:23;;;;;;;;;;;;;;;22.61;33.81;101471.34;5095099;28;20363;-71
2023/05/16 09:08:49;;;;;;;;;;;;;;;22.39;33.93;101471.75;5095070;28;20022;-71
2023/05/16 09:11:14;;;;;;;;;;;;;;;22.24;34.21;101465.81;5094836;28;19955;-71
2023/05/16 09:13:39;;;;;;;;;;;;;;;22.06;34.33;101463.91;5094427;28;19911;-71
2023/05/16 09:16:12;;;;;;;;;;;;;;;22.06;34.92;101446.81;5094904;28;19912;-70
2023/05/16 09:18:38;;;;;;;;;;;;;;;22.15;35.34;101450.88;5093196;28;19912;-70
2023/05/16 09:21:04;;;;;;;;;;;;;;;22.20;34.96;101453.75;5094325;28;19987;-71
2023/05/16 09:23:30;;;;;;;;;;;;;;;22.29;34.44;101451.63;5092910;28;19919;-73
2023/05/16 09:25:56;;;;;;;;;;;;;;;22.26;34.00;101447.44;5094203;28;19912;-71
2023/05/16 09:28:22;;;;;;;;;;;;;;;22.42;34.58;101449.59;5094265;28;19912;-72
2023/05/16 09:30:47;;;;;;;;;;;;;;;22.55;34.60;101445.91;5093204;28;20513;-72
2023/05/16 09:33:13;;;;;;;;;;;;;;;22.60;34.56;101447.97;5093701;28;19985;-71
2023/05/16 09:35:38;;;;;;;;;;;;;;;22.62;34.69;101445.84;5093622;28;19912;-70
2023/05/16 09:38:03;;;;;;;;;;;;;;;22.66;33.80;101447.06;5094596;28;20306;-71
2023/05/16 09:40:29;;;;;;;;;;;;;;;22.69;33.74;101446.59;5094306;28;19957;-73
2023/05/16 09:43:02;;;;;;;;;;;;;;;22.76;33.98;101441.91;5094437;28;19966;-75
2023/05/16 09:45:27;;;;;;;;;;;;;;;22.84;34.17;101441.63;5094209;28;19916;-75
2023/05/16 09:47:53;;;;;;;;;;;;;;;22.82;33.49;101441.03;5094063;28;20275;-74
2023/05/16 09:50:18;;;;;;;;;;;;;;;22.82;34.05;101435.59;5094405;28;20248;-72
2023/05/16 09:52:43;;;;;;;;;;;;;;;22.81;33.83;101444.81;5094250;28;19966;-75
2023/05/16 09:55:09;;;;;;;;;;;;;;;22.76;33.83;101431.06;5093827;28;19957;-72
2023/05/16 09:57:38;;;;;;;;;;;;;;;22.74;33.67;101427.72;5093794;28;19969;-73
2023/05/16 10:00:07;;;;;;;;;;;;;;;22.72;33.15;101424.41;5094172;28;19912;-72
2023/05/16 10:02:33;;;;;;;;;;;;;;;22.76;33.25;101428.34;5093874;28;19919;-71
2023/05/16 10:04:58;;;;;;;;;;;;;;;22.67;33.72;101414.25;5094069;28;19965;-73
2023/05/16 10:07:24;;;;;;;;;;;;;;;22.52;34.13;101411.88;5094096;28;19984;-72
2023/05/16 10:09:50;;;;;;;;;;;;;;;22.33;32.65;101414.84;5093565;28;19968;-72
2023/05/16 10:12:15;;;;;;;;;;;;;;;22.30;32.85;101415.28;5093361;28;20282;-72
2023/05/16 10:14:41;;;;;;;;;;;;;;;22.26;32.65;101420.31;5092268;28;19912;-73
2023/05/16 10:17:07;;;;;;;;;;;;;;;22.37;32.17;101416.03;5093798;28;19931;-74
2023/05/16 10:19:35;;;;;;;;;;;;;;;22.42;32.24;101408.88;5092749;28;19957;-73
2023/05/16 10:22:03;;;;;;;;;;;;;;;22.58;32.15;101406.63;5093391;28;20425;-72
2023/05/16 10:24:33;;;;;;;;;;;;;;;22.85;32.68;101400.69;5074975;28;19912;-73
2023/05/16 10:26:58;;;;;;;;;;;;;;;23.00;32.46;101410.31;5091447;28;20341;-72
2023/05/16 10:29:24;;;;;;;;;;;;;;;22.96;32.25;101404.50;5084539;28;20011;-72
2023/05/16 10:31:50;;;;;;;;;;;;;;;22.85;32.37;101397.16;5090183;28;20260;-75
2023/05/16 10:34:16;;;;;;;;;;;;;;;22.72;33.15;101399.97;5093015;28;19959;-72
2023/05/16 10:36:43;;;;;;;;;;;;;;;22.67;33.50;101392.53;5092721;28;20364;-73
2023/05/16 10:39:09;;;;;;;;;;;;;;;22.81;33.25;101404.06;5093015;28;19912;-72
2023/05/16 10:41:34;;;;;;;;;;;;;;;23.01;32.43;101391.06;5089447;28;19951;-70
2023/05/16 10:44:01;;;;;;;;;;;;;;;23.15;31.98;101397.16;5091672;28;19923;-74
2023/05/16 10:46:28;;;;;;;;;;;;;;;23.25;32.60;101402.03;5088970;28;19912;-74
2023/05/16 10:48:53;;;;;;;;;;;;;;;23.51;32.58;101406.25;5092739;28;19960;-73
2023/05/16 10:51:39;;;;;;;;;;;;;;;23.53;31.40;101396.81;5090021;28;19920;-69
2023/05/16 10:54:06;;;;;;;;;;;;;;;23.46;31.76;101383.31;5087528;28;19947;-71
2023/05/16 10:56:33;;;;;;;;;;;;;;;23.44;31.67;101398.22;5085538;28;19912;-72
2023/05/16 10:58:59;;;;;;;;;;;;;;;23.48;31.82;101392.06;5092500;28;19955;-73
2023/05/16 11:01:28;;;;;;;;;;;;;;;23.54;31.64;101389.47;5092372;28;19989;-75
2023/05/16 11:03:57;;;;;;;;;;;;;;;23.57;31.61;101400.75;5083951;28;19919;-71
2023/05/16 11:06:23;;;;;;;;;;;;;;;23.61;32.00;101391.06;5088290;28;19916;-72
2023/05/16 11:09:10;;;;;;;;;;;;;;;23.77;31.68;101390.38;5078573;28;19912;-72
2023/05/16 11:11:51;;;;;;;;;;;;;;;23.88;31.79;101383.28;5092018;28;19915;-70
2023/05/16 11:14:23;;;;;;;;;;;;;;;23.87;31.47;101383.53;5073235;28;19912;-72
2023/05/16 11:16:50;;;;;;;;;;;;;;;23.74;31.63;101390.88;5078760;28;19919;-71
2023/05/16 11:19:28;;;;;;;;;;;;;;;23.49;31.23;101376.59;5091344;28;19968;-72
2023/05/16 11:22:16;;;;;;;;;;;;;;;23.27;31.41;101379.00;5088058;28;19978;-71
2023/05/16 11:24:52;;;;;;;;;;;;;;;23.28;31.90;101374.41;5084437;28;20334;-71
2023/05/16 11:27:22;;;;;;;;;;;;;;;23.31;31.52;101363.06;5086604;28;19912;-73
2023/05/16 11:29:47;;;;;;;;;;;;;;;23.44;32.11;101374.56;5077710;28;19911;-73
2023/05/16 11:32:13;;;;;;;;;;;;;;;23.54;31.40;101360.41;5087736;28;20417;-70
2023/05/16 11:34:39;;;;;;;;;;;;;;;23.47;31.84;101373.28;5085454;28;19919;-72
2023/05/16 11:37:05;;;;;;;;;;;;;;;23.41;31.78;101363.31;5074703;28;20249;-70
2023/05/16 11:39:31;;;;;;;;;;;;;;;23.25;31.76;101359.38;5074108;28;19932;-72
2023/05/16 11:41:56;;;;;;;;;;;;;;;23.07;31.57;101357.53;5091998;28;20274;-72
2023/05/16 11:44:22;;;;;;;;;;;;;;;22.98;31.77;101360.81;5091356;28;19966;-72
2023/05/16 11:46:47;;;;;;;;;;;;;;;22.89;32.11;101351.34;5075279;28;20325;-71
2023/05/16 11:49:12;;;;;;;;;;;;;;;22.97;32.64;101351.84;5090766;28;19939;-75
2023/05/16 11:51:39;;;;;;;;;;;;;;;23.04;32.63;101352.56;5089631;28;20325;-71
2023/05/16 11:54:04;;;;;;;;;;;;;;;23.07;32.40;101346.69;5073875;28;19912;-72
2023/05/16 11:56:31;;;;;;;;;;;;;;;23.15;32.45;101346.38;5091968;28;19999;-74
2023/05/16 11:58:58;;;;;;;;;;;;;;;23.22;32.40;101334.56;5077418;28;19919;-70
2023/05/16 12:01:23;;;;;;;;;;;;;;;23.23;31.91;101338.94;5096175;28;20007;-71
2023/05/16 12:03:57;;;;;;;;;;;;;;;23.12;32.21;101345.97;5096259;28;19943;-70
2023/05/16 12:06:23;;;;;;;;;;;;;;;23.06;31.67;101336.03;5096132;28;20016;-71
2023/05/16 12:08:49;;;;;;;;;;;;;;;22.86;31.74;101337.19;5061096;28;20390;-71
2023/05/16 12:11:14;;;;;;;;;;;;;;;22.73;32.25;101336.47;5096120;28;19920;-72
2023/05/16 12:13:40;;;;;;;;;;;;;;;22.68;32.54;101334.44;5096018;28;19965;-71
2023/05/16 12:16:05;;;;;;;;;;;;;;;22.60;32.68;101339.38;5096081;28;19912;-71
2023/05/16 12:18:30;;;;;;;;;;;;;;;22.45;32.15;101332.44;5095550;28;20261;-72
2023/05/16 12:20:56;;;;;;;;;;;;;;;22.21;32.53;101326.03;5095807;28;20053;-71
2023/05/16 12:23:21;;;;;;;;;;;;;;;22.14;32.64;101329.88;5095623;28;19919;-72
2023/05/16 12:25:48;;;;;;;;;;;;;;;22.02;33.33;101328.94;5095726;28;20378;-74
2023/05/16 12:28:13;;;;;;;;;;;;;;;21.92;33.43;101341.09;5096169;28;19912;-74
2023/05/16 12:30:43;;;;;;;;;;;;;;;21.79;33.71;101335.81;5095712;28;19918;-73
2023/05/16 12:33:10;;;;;;;;;;;;;;;21.67;33.59;101336.75;5093644;28;19935;-71
2023/05/16 12:35:37;;;;;;;;;;;;;;;21.57;33.72;101329.94;5095512;28;20431;-70